sensor_id;sensor_type;location;lat;lon;timestamp;P1;durP1;ratioP1;P2;durP2;ratioP2
83552;SDS011;73510;50.866;5.420;2023-11-19T00:00:16;1.42;;;0.70;;
83552;SDS011;73510;50.866;5.420;2023-11-19T00:02:43;2.47;;;0.80;;
83552;SDS011;73510;50.866;5.420;2023-11-19T00:05:09;1.65;;;1.00;;
83552;SDS011;73510;50.866;5.420;2023-11-19T00:07:36;1.17;;;0.88;;
83552;SDS011;73510;50.866;5.420;2023-11-19T00:10:06;2.55;;;0.90;;
83552;SDS011;73510;50.866;5.420;2023-11-19T00:12:36;1.20;;;0.93;;
83552;SDS011;73510;50.866;5.420;2023-11-19T00:15:03;2.28;;;0.75;;
83552;SDS011;73510;50.866;5.420;2023-11-19T00:17:28;1.20;;;0.70;;
83552;SDS011;73510;50.866;5.420;2023-11-19T00:19:54;3.40;;;0.90;;
83552;SDS011;73510;50.866;5.420;2023-11-19T00:22:20;0.95;;;0.70;;
83552;SDS011;73510;50.866;5.420;2023-11-19T00:24:47;1.83;;;1.10;;
83552;SDS011;73510;50.866;5.420;2023-11-19T00:27:12;1.92;;;0.80;;
83552;SDS011;73510;50.866;5.420;2023-11-19T00:29:38;3.05;;;1.13;;
83552;SDS011;73510;50.866;5.420;2023-11-19T00:32:04;1.70;;;0.82;;
83552;SDS011;73510;50.866;5.420;2023-11-19T00:34:30;2.28;;;0.93;;
83552;SDS011;73510;50.866;5.420;2023-11-19T00:36:56;3.22;;;1.73;;
83552;SDS011;73510;50.866;5.420;2023-11-19T00:39:22;5.22;;;1.48;;
83552;SDS011;73510;50.866;5.420;2023-11-19T00:41:48;3.05;;;1.42;;
83552;SDS011;73510;50.866;5.420;2023-11-19T00:44:13;1.85;;;1.40;;
83552;SDS011;73510;50.866;5.420;2023-11-19T00:46:39;1.98;;;1.27;;
83552;SDS011;73510;50.866;5.420;2023-11-19T00:49:05;3.00;;;1.52;;
83552;SDS011;73510;50.866;5.420;2023-11-19T00:51:30;5.53;;;2.20;;
83552;SDS011;73510;50.866;5.420;2023-11-19T00:53:56;3.05;;;1.63;;
83552;SDS011;73510;50.866;5.420;2023-11-19T00:56:24;3.45;;;2.35;;
83552;SDS011;73510;50.866;5.420;2023-11-19T00:58:49;3.58;;;2.17;;
83552;SDS011;73510;50.866;5.420;2023-11-19T01:01:15;3.13;;;1.83;;
83552;SDS011;73510;50.866;5.420;2023-11-19T01:03:41;4.85;;;1.63;;
83552;SDS011;73510;50.866;5.420;2023-11-19T01:06:07;6.60;;;1.90;;
83552;SDS011;73510;50.866;5.420;2023-11-19T01:08:33;4.00;;;1.83;;
83552;SDS011;73510;50.866;5.420;2023-11-19T01:11:00;3.97;;;2.17;;
83552;SDS011;73510;50.866;5.420;2023-11-19T01:13:27;5.88;;;1.92;;
83552;SDS011;73510;50.866;5.420;2023-11-19T01:15:53;4.80;;;1.90;;
83552;SDS011;73510;50.866;5.420;2023-11-19T01:18:18;6.03;;;2.00;;
83552;SDS011;73510;50.866;5.420;2023-11-19T01:20:44;4.15;;;1.85;;
83552;SDS011;73510;50.866;5.420;2023-11-19T01:23:10;6.60;;;2.10;;
83552;SDS011;73510;50.866;5.420;2023-11-19T01:25:36;4.45;;;1.98;;
83552;SDS011;73510;50.866;5.420;2023-11-19T01:28:03;5.82;;;2.67;;
83552;SDS011;73510;50.866;5.420;2023-11-19T01:30:29;9.70;;;2.35;;
83552;SDS011;73510;50.866;5.420;2023-11-19T01:32:55;9.55;;;2.03;;
83552;SDS011;73510;50.866;5.420;2023-11-19T01:35:21;5.63;;;1.90;;
83552;SDS011;73510;50.866;5.420;2023-11-19T01:37:48;14.60;;;2.30;;
83552;SDS011;73510;50.866;5.420;2023-11-19T01:40:13;3.58;;;1.63;;
83552;SDS011;73510;50.866;5.420;2023-11-19T01:42:40;12.77;;;2.42;;
83552;SDS011;73510;50.866;5.420;2023-11-19T01:45:06;6.60;;;1.80;;
83552;SDS011;73510;50.866;5.420;2023-11-19T01:47:34;6.60;;;1.92;;
83552;SDS011;73510;50.866;5.420;2023-11-19T01:50:00;8.88;;;2.10;;
83552;SDS011;73510;50.866;5.420;2023-11-19T01:52:31;10.65;;;1.92;;
83552;SDS011;73510;50.866;5.420;2023-11-19T01:54:59;6.25;;;1.80;;
83552;SDS011;73510;50.866;5.420;2023-11-19T01:57:24;7.82;;;1.90;;
83552;SDS011;73510;50.866;5.420;2023-11-19T01:59:51;7.13;;;1.83;;
83552;SDS011;73510;50.866;5.420;2023-11-19T02:02:19;12.63;;;1.80;;
83552;SDS011;73510;50.866;5.420;2023-11-19T02:04:46;8.73;;;1.73;;
83552;SDS011;73510;50.866;5.420;2023-11-19T02:07:16;9.55;;;2.08;;
83552;SDS011;73510;50.866;5.420;2023-11-19T02:09:42;9.10;;;1.92;;
83552;SDS011;73510;50.866;5.420;2023-11-19T02:12:09;8.40;;;2.17;;
83552;SDS011;73510;50.866;5.420;2023-11-19T02:14:36;8.75;;;1.70;;
83552;SDS011;73510;50.866;5.420;2023-11-19T02:17:02;9.05;;;1.92;;
83552;SDS011;73510;50.866;5.420;2023-11-19T02:19:28;8.60;;;1.80;;
83552;SDS011;73510;50.866;5.420;2023-11-19T02:21:54;12.23;;;2.38;;
83552;SDS011;73510;50.866;5.420;2023-11-19T02:24:22;5.32;;;1.40;;
83552;SDS011;73510;50.866;5.420;2023-11-19T02:29:35;8.35;;;1.42;;
83552;SDS011;73510;50.866;5.420;2023-11-19T02:32:00;9.15;;;2.00;;
83552;SDS011;73510;50.866;5.420;2023-11-19T02:34:27;4.72;;;1.42;;
83552;SDS011;73510;50.866;5.420;2023-11-19T02:36:52;7.68;;;2.20;;
83552;SDS011;73510;50.866;5.420;2023-11-19T02:39:18;8.90;;;1.83;;
83552;SDS011;73510;50.866;5.420;2023-11-19T02:41:47;12.93;;;2.38;;
83552;SDS011;73510;50.866;5.420;2023-11-19T02:44:18;14.77;;;2.35;;
83552;SDS011;73510;50.866;5.420;2023-11-19T02:46:43;10.30;;;2.17;;
83552;SDS011;73510;50.866;5.420;2023-11-19T02:49:09;8.63;;;2.38;;
83552;SDS011;73510;50.866;5.420;2023-11-19T02:51:35;8.82;;;1.77;;
83552;SDS011;73510;50.866;5.420;2023-11-19T02:54:01;9.32;;;1.65;;
83552;SDS011;73510;50.866;5.420;2023-11-19T02:56:28;7.05;;;1.75;;
83552;SDS011;73510;50.866;5.420;2023-11-19T02:58:59;7.63;;;2.05;;
83552;SDS011;73510;50.866;5.420;2023-11-19T03:01:33;9.77;;;1.90;;
83552;SDS011;73510;50.866;5.420;2023-11-19T03:04:00;7.72;;;1.92;;
83552;SDS011;73510;50.866;5.420;2023-11-19T03:06:27;8.18;;;1.90;;
83552;SDS011;73510;50.866;5.420;2023-11-19T03:08:54;7.32;;;1.67;;
83552;SDS011;73510;50.866;5.420;2023-11-19T03:11:20;13.10;;;2.03;;
83552;SDS011;73510;50.866;5.420;2023-11-19T03:13:46;10.18;;;2.20;;
83552;SDS011;73510;50.866;5.420;2023-11-19T03:16:11;13.00;;;2.10;;
83552;SDS011;73510;50.866;5.420;2023-11-19T03:18:37;9.50;;;1.85;;
83552;SDS011;73510;50.866;5.420;2023-11-19T03:21:05;11.15;;;2.40;;
83552;SDS011;73510;50.866;5.420;2023-11-19T03:23:32;10.38;;;2.28;;
83552;SDS011;73510;50.866;5.420;2023-11-19T03:25:58;10.77;;;2.15;;
83552;SDS011;73510;50.866;5.420;2023-11-19T03:28:24;16.35;;;2.28;;
83552;SDS011;73510;50.866;5.420;2023-11-19T03:30:49;13.50;;;2.00;;
83552;SDS011;73510;50.866;5.420;2023-11-19T03:33:15;14.43;;;2.20;;
83552;SDS011;73510;50.866;5.420;2023-11-19T03:35:41;9.73;;;2.08;;
83552;SDS011;73510;50.866;5.420;2023-11-19T03:38:07;10.82;;;1.95;;
83552;SDS011;73510;50.866;5.420;2023-11-19T03:40:33;7.32;;;1.92;;
83552;SDS011;73510;50.866;5.420;2023-11-19T03:42:59;12.85;;;2.08;;
83552;SDS011;73510;50.866;5.420;2023-11-19T03:45:25;13.32;;;2.35;;
83552;SDS011;73510;50.866;5.420;2023-11-19T03:47:51;13.18;;;2.20;;
83552;SDS011;73510;50.866;5.420;2023-11-19T03:50:16;11.02;;;1.88;;
83552;SDS011;73510;50.866;5.420;2023-11-19T03:52:45;9.98;;;1.85;;
83552;SDS011;73510;50.866;5.420;2023-11-19T03:55:11;9.02;;;1.58;;
83552;SDS011;73510;50.866;5.420;2023-11-19T03:57:37;13.90;;;2.70;;
83552;SDS011;73510;50.866;5.420;2023-11-19T04:00:04;11.98;;;2.20;;
83552;SDS011;73510;50.866;5.420;2023-11-19T04:02:35;8.45;;;1.75;;
83552;SDS011;73510;50.866;5.420;2023-11-19T04:05:04;9.50;;;2.22;;
83552;SDS011;73510;50.866;5.420;2023-11-19T04:07:30;9.70;;;2.40;;
83552;SDS011;73510;50.866;5.420;2023-11-19T04:09:56;10.80;;;2.53;;
83552;SDS011;73510;50.866;5.420;2023-11-19T04:12:22;9.77;;;2.13;;
83552;SDS011;73510;50.866;5.420;2023-11-19T04:14:48;9.52;;;1.80;;
83552;SDS011;73510;50.866;5.420;2023-11-19T04:17:14;6.43;;;2.25;;
83552;SDS011;73510;50.866;5.420;2023-11-19T04:19:39;9.38;;;2.40;;
83552;SDS011;73510;50.866;5.420;2023-11-19T04:22:06;11.18;;;2.25;;
83552;SDS011;73510;50.866;5.420;2023-11-19T04:24:33;11.27;;;2.63;;
83552;SDS011;73510;50.866;5.420;2023-11-19T04:26:59;7.32;;;1.70;;
83552;SDS011;73510;50.866;5.420;2023-11-19T04:29:25;7.05;;;2.47;;
83552;SDS011;73510;50.866;5.420;2023-11-19T04:31:51;9.88;;;2.10;;
83552;SDS011;73510;50.866;5.420;2023-11-19T04:34:16;14.27;;;2.17;;
83552;SDS011;73510;50.866;5.420;2023-11-19T04:36:42;12.88;;;2.25;;
83552;SDS011;73510;50.866;5.420;2023-11-19T04:39:09;16.45;;;1.85;;
83552;SDS011;73510;50.866;5.420;2023-11-19T04:41:41;12.98;;;2.03;;
83552;SDS011;73510;50.866;5.420;2023-11-19T04:44:13;12.27;;;2.25;;
83552;SDS011;73510;50.866;5.420;2023-11-19T04:46:40;19.33;;;2.75;;
83552;SDS011;73510;50.866;5.420;2023-11-19T04:49:08;9.07;;;2.28;;
83552;SDS011;73510;50.866;5.420;2023-11-19T04:51:41;15.98;;;2.22;;
83552;SDS011;73510;50.866;5.420;2023-11-19T04:54:07;19.20;;;3.15;;
83552;SDS011;73510;50.866;5.420;2023-11-19T04:56:34;12.40;;;2.33;;
83552;SDS011;73510;50.866;5.420;2023-11-19T04:59:01;14.30;;;2.35;;
83552;SDS011;73510;50.866;5.420;2023-11-19T05:01:27;7.97;;;2.17;;
83552;SDS011;73510;50.866;5.420;2023-11-19T05:03:53;13.00;;;3.22;;
83552;SDS011;73510;50.866;5.420;2023-11-19T05:06:19;15.80;;;2.67;;
83552;SDS011;73510;50.866;5.420;2023-11-19T05:08:45;14.55;;;2.40;;
83552;SDS011;73510;50.866;5.420;2023-11-19T05:11:11;12.65;;;1.98;;
83552;SDS011;73510;50.866;5.420;2023-11-19T05:13:43;13.57;;;2.25;;
83552;SDS011;73510;50.866;5.420;2023-11-19T05:16:10;14.77;;;2.88;;
83552;SDS011;73510;50.866;5.420;2023-11-19T05:18:39;15.23;;;2.10;;
83552;SDS011;73510;50.866;5.420;2023-11-19T05:21:05;10.88;;;2.00;;
83552;SDS011;73510;50.866;5.420;2023-11-19T05:23:32;15.25;;;3.97;;
83552;SDS011;73510;50.866;5.420;2023-11-19T05:26:01;12.75;;;2.55;;
83552;SDS011;73510;50.866;5.420;2023-11-19T05:28:27;8.50;;;2.05;;
83552;SDS011;73510;50.866;5.420;2023-11-19T05:30:53;15.10;;;2.38;;
83552;SDS011;73510;50.866;5.420;2023-11-19T05:33:18;14.35;;;2.95;;
83552;SDS011;73510;50.866;5.420;2023-11-19T05:35:44;13.60;;;2.38;;
83552;SDS011;73510;50.866;5.420;2023-11-19T05:38:10;14.60;;;2.50;;
83552;SDS011;73510;50.866;5.420;2023-11-19T05:40:35;19.55;;;2.60;;
83552;SDS011;73510;50.866;5.420;2023-11-19T05:43:03;13.38;;;2.47;;
83552;SDS011;73510;50.866;5.420;2023-11-19T05:45:30;13.98;;;2.78;;
83552;SDS011;73510;50.866;5.420;2023-11-19T05:47:57;10.50;;;2.13;;
83552;SDS011;73510;50.866;5.420;2023-11-19T05:50:23;12.98;;;2.28;;
83552;SDS011;73510;50.866;5.420;2023-11-19T05:52:49;16.98;;;2.50;;
83552;SDS011;73510;50.866;5.420;2023-11-19T05:55:14;13.07;;;2.05;;
83552;SDS011;73510;50.866;5.420;2023-11-19T05:57:40;17.83;;;2.72;;
83552;SDS011;73510;50.866;5.420;2023-11-19T06:00:06;13.43;;;2.30;;
83552;SDS011;73510;50.866;5.420;2023-11-19T06:02:43;15.85;;;2.67;;
83552;SDS011;73510;50.866;5.420;2023-11-19T06:05:09;14.70;;;2.40;;
83552;SDS011;73510;50.866;5.420;2023-11-19T06:07:35;11.27;;;2.17;;
83552;SDS011;73510;50.866;5.420;2023-11-19T06:10:01;12.30;;;2.33;;
83552;SDS011;73510;50.866;5.420;2023-11-19T06:12:30;14.32;;;2.45;;
83552;SDS011;73510;50.866;5.420;2023-11-19T06:14:56;11.65;;;2.90;;
83552;SDS011;73510;50.866;5.420;2023-11-19T06:17:22;9.80;;;1.98;;
83552;SDS011;73510;50.866;5.420;2023-11-19T06:19:48;16.35;;;2.42;;
83552;SDS011;73510;50.866;5.420;2023-11-19T06:22:13;11.18;;;2.80;;
83552;SDS011;73510;50.866;5.420;2023-11-19T06:24:40;9.63;;;2.63;;
83552;SDS011;73510;50.866;5.420;2023-11-19T06:27:05;16.52;;;2.15;;
83552;SDS011;73510;50.866;5.420;2023-11-19T06:29:31;15.10;;;2.70;;
83552;SDS011;73510;50.866;5.420;2023-11-19T06:31:56;16.20;;;2.58;;
83552;SDS011;73510;50.866;5.420;2023-11-19T06:34:22;12.85;;;2.53;;
83552;SDS011;73510;50.866;5.420;2023-11-19T06:36:48;15.75;;;3.10;;
83552;SDS011;73510;50.866;5.420;2023-11-19T06:39:13;10.45;;;1.95;;
83552;SDS011;73510;50.866;5.420;2023-11-19T06:41:44;17.98;;;2.85;;
83552;SDS011;73510;50.866;5.420;2023-11-19T06:44:10;13.93;;;2.00;;
83552;SDS011;73510;50.866;5.420;2023-11-19T06:46:36;10.68;;;2.65;;
83552;SDS011;73510;50.866;5.420;2023-11-19T06:49:01;15.52;;;3.00;;
83552;SDS011;73510;50.866;5.420;2023-11-19T06:51:27;19.83;;;3.15;;
83552;SDS011;73510;50.866;5.420;2023-11-19T06:53:54;16.88;;;2.72;;
83552;SDS011;73510;50.866;5.420;2023-11-19T06:56:21;14.88;;;1.98;;
83552;SDS011;73510;50.866;5.420;2023-11-19T06:58:47;17.42;;;2.72;;
83552;SDS011;73510;50.866;5.420;2023-11-19T07:01:17;15.43;;;2.88;;
83552;SDS011;73510;50.866;5.420;2023-11-19T07:03:46;17.65;;;2.63;;
83552;SDS011;73510;50.866;5.420;2023-11-19T07:06:13;20.80;;;3.03;;
83552;SDS011;73510;50.866;5.420;2023-11-19T07:08:42;14.73;;;2.38;;
83552;SDS011;73510;50.866;5.420;2023-11-19T07:11:10;14.80;;;2.50;;
83552;SDS011;73510;50.866;5.420;2023-11-19T07:13:36;24.60;;;3.30;;
83552;SDS011;73510;50.866;5.420;2023-11-19T07:16:03;17.95;;;2.95;;
83552;SDS011;73510;50.866;5.420;2023-11-19T07:18:29;13.88;;;3.05;;
83552;SDS011;73510;50.866;5.420;2023-11-19T07:20:55;13.48;;;2.97;;
83552;SDS011;73510;50.866;5.420;2023-11-19T07:23:21;10.63;;;2.67;;
83552;SDS011;73510;50.866;5.420;2023-11-19T07:25:46;15.07;;;2.50;;
83552;SDS011;73510;50.866;5.420;2023-11-19T07:28:13;14.20;;;2.33;;
83552;SDS011;73510;50.866;5.420;2023-11-19T07:30:39;14.65;;;2.63;;
83552;SDS011;73510;50.866;5.420;2023-11-19T07:33:05;18.55;;;2.38;;
83552;SDS011;73510;50.866;5.420;2023-11-19T07:35:31;13.25;;;2.38;;
83552;SDS011;73510;50.866;5.420;2023-11-19T07:37:57;20.60;;;2.53;;
83552;SDS011;73510;50.866;5.420;2023-11-19T07:40:23;14.73;;;2.65;;
83552;SDS011;73510;50.866;5.420;2023-11-19T07:42:49;13.45;;;2.70;;
83552;SDS011;73510;50.866;5.420;2023-11-19T07:45:16;14.93;;;2.85;;
83552;SDS011;73510;50.866;5.420;2023-11-19T07:47:42;16.80;;;2.83;;
83552;SDS011;73510;50.866;5.420;2023-11-19T07:50:09;13.98;;;2.53;;
83552;SDS011;73510;50.866;5.420;2023-11-19T07:52:36;11.13;;;2.30;;
83552;SDS011;73510;50.866;5.420;2023-11-19T07:55:02;12.93;;;2.55;;
83552;SDS011;73510;50.866;5.420;2023-11-19T07:57:28;17.13;;;2.83;;
83552;SDS011;73510;50.866;5.420;2023-11-19T07:59:56;15.55;;;2.80;;
83552;SDS011;73510;50.866;5.420;2023-11-19T08:02:22;15.43;;;2.45;;
83552;SDS011;73510;50.866;5.420;2023-11-19T08:04:49;16.45;;;2.80;;
83552;SDS011;73510;50.866;5.420;2023-11-19T08:07:17;10.38;;;1.88;;
83552;SDS011;73510;50.866;5.420;2023-11-19T08:09:43;15.85;;;2.38;;
83552;SDS011;73510;50.866;5.420;2023-11-19T08:12:09;13.77;;;2.42;;
83552;SDS011;73510;50.866;5.420;2023-11-19T08:14:35;18.50;;;2.85;;
83552;SDS011;73510;50.866;5.420;2023-11-19T08:17:02;13.43;;;2.58;;
83552;SDS011;73510;50.866;5.420;2023-11-19T08:19:28;15.27;;;2.78;;
83552;SDS011;73510;50.866;5.420;2023-11-19T08:21:54;12.63;;;2.10;;
83552;SDS011;73510;50.866;5.420;2023-11-19T08:24:20;12.55;;;2.92;;
83552;SDS011;73510;50.866;5.420;2023-11-19T08:26:46;20.98;;;4.05;;
83552;SDS011;73510;50.866;5.420;2023-11-19T08:29:11;16.27;;;2.85;;
83552;SDS011;73510;50.866;5.420;2023-11-19T08:31:38;14.98;;;2.08;;
83552;SDS011;73510;50.866;5.420;2023-11-19T08:34:04;13.38;;;2.22;;
83552;SDS011;73510;50.866;5.420;2023-11-19T08:36:33;11.80;;;2.65;;
83552;SDS011;73510;50.866;5.420;2023-11-19T08:38:59;12.65;;;2.70;;
83552;SDS011;73510;50.866;5.420;2023-11-19T08:41:25;15.82;;;2.88;;
83552;SDS011;73510;50.866;5.420;2023-11-19T08:43:51;15.27;;;2.90;;
83552;SDS011;73510;50.866;5.420;2023-11-19T08:46:17;18.58;;;3.05;;
83552;SDS011;73510;50.866;5.420;2023-11-19T08:48:43;21.27;;;2.85;;
83552;SDS011;73510;50.866;5.420;2023-11-19T08:51:09;13.85;;;2.55;;
83552;SDS011;73510;50.866;5.420;2023-11-19T08:53:35;10.73;;;2.10;;
83552;SDS011;73510;50.866;5.420;2023-11-19T08:56:01;19.83;;;3.28;;
83552;SDS011;73510;50.866;5.420;2023-11-19T08:58:28;12.40;;;2.72;;
83552;SDS011;73510;50.866;5.420;2023-11-19T09:00:54;10.50;;;2.75;;
83552;SDS011;73510;50.866;5.420;2023-11-19T09:03:20;14.77;;;2.45;;
83552;SDS011;73510;50.866;5.420;2023-11-19T09:05:46;17.10;;;2.75;;
83552;SDS011;73510;50.866;5.420;2023-11-19T09:08:12;14.50;;;2.50;;
83552;SDS011;73510;50.866;5.420;2023-11-19T09:10:39;12.48;;;2.25;;
83552;SDS011;73510;50.866;5.420;2023-11-19T09:13:04;13.10;;;2.75;;
83552;SDS011;73510;50.866;5.420;2023-11-19T09:15:30;11.82;;;2.88;;
83552;SDS011;73510;50.866;5.420;2023-11-19T09:17:56;8.30;;;1.77;;
83552;SDS011;73510;50.866;5.420;2023-11-19T09:20:21;18.75;;;3.78;;
83552;SDS011;73510;50.866;5.420;2023-11-19T09:22:48;11.00;;;2.25;;
83552;SDS011;73510;50.866;5.420;2023-11-19T09:25:13;12.65;;;2.30;;
83552;SDS011;73510;50.866;5.420;2023-11-19T09:27:42;17.25;;;2.55;;
83552;SDS011;73510;50.866;5.420;2023-11-19T09:30:09;14.63;;;3.70;;
83552;SDS011;73510;50.866;5.420;2023-11-19T09:32:34;14.82;;;2.90;;
83552;SDS011;73510;50.866;5.420;2023-11-19T09:35:00;18.27;;;2.60;;
83552;SDS011;73510;50.866;5.420;2023-11-19T09:37:28;13.10;;;2.92;;
83552;SDS011;73510;50.866;5.420;2023-11-19T09:39:53;10.40;;;1.80;;
83552;SDS011;73510;50.866;5.420;2023-11-19T09:42:19;14.27;;;2.47;;
83552;SDS011;73510;50.866;5.420;2023-11-19T09:44:46;11.55;;;2.45;;
83552;SDS011;73510;50.866;5.420;2023-11-19T09:47:13;15.02;;;2.35;;
83552;SDS011;73510;50.866;5.420;2023-11-19T09:49:40;16.90;;;3.03;;
83552;SDS011;73510;50.866;5.420;2023-11-19T09:52:06;15.73;;;3.25;;
83552;SDS011;73510;50.866;5.420;2023-11-19T09:54:32;16.73;;;2.80;;
83552;SDS011;73510;50.866;5.420;2023-11-19T09:56:58;9.30;;;1.77;;
83552;SDS011;73510;50.866;5.420;2023-11-19T09:59:29;15.68;;;3.28;;
83552;SDS011;73510;50.866;5.420;2023-11-19T10:01:56;8.60;;;1.55;;
83552;SDS011;73510;50.866;5.420;2023-11-19T10:04:22;14.13;;;2.35;;
83552;SDS011;73510;50.866;5.420;2023-11-19T10:06:48;11.65;;;2.42;;
83552;SDS011;73510;50.866;5.420;2023-11-19T10:09:16;8.10;;;2.13;;
83552;SDS011;73510;50.866;5.420;2023-11-19T10:11:42;12.75;;;2.58;;
83552;SDS011;73510;50.866;5.420;2023-11-19T10:14:08;8.80;;;2.03;;
83552;SDS011;73510;50.866;5.420;2023-11-19T10:16:34;11.77;;;2.45;;
83552;SDS011;73510;50.866;5.420;2023-11-19T10:19:00;19.15;;;2.78;;
83552;SDS011;73510;50.866;5.420;2023-11-19T10:21:25;15.93;;;2.58;;
83552;SDS011;73510;50.866;5.420;2023-11-19T10:23:56;13.75;;;3.38;;
83552;SDS011;73510;50.866;5.420;2023-11-19T10:26:24;11.43;;;2.97;;
83552;SDS011;73510;50.866;5.420;2023-11-19T10:28:50;8.70;;;2.15;;
83552;SDS011;73510;50.866;5.420;2023-11-19T10:31:17;10.00;;;2.13;;
83552;SDS011;73510;50.866;5.420;2023-11-19T10:33:44;9.55;;;2.20;;
83552;SDS011;73510;50.866;5.420;2023-11-19T10:36:13;10.20;;;2.70;;
83552;SDS011;73510;50.866;5.420;2023-11-19T10:38:39;11.93;;;2.53;;
83552;SDS011;73510;50.866;5.420;2023-11-19T10:41:05;11.32;;;2.40;;
83552;SDS011;73510;50.866;5.420;2023-11-19T10:43:42;14.93;;;2.60;;
83552;SDS011;73510;50.866;5.420;2023-11-19T10:46:11;6.85;;;2.20;;
83552;SDS011;73510;50.866;5.420;2023-11-19T10:48:38;17.45;;;3.03;;
83552;SDS011;73510;50.866;5.420;2023-11-19T10:51:05;14.55;;;2.55;;
83552;SDS011;73510;50.866;5.420;2023-11-19T10:53:36;10.95;;;2.05;;
83552;SDS011;73510;50.866;5.420;2023-11-19T10:56:04;16.65;;;3.20;;
83552;SDS011;73510;50.866;5.420;2023-11-19T10:58:35;11.23;;;2.55;;
83552;SDS011;73510;50.866;5.420;2023-11-19T11:01:08;10.82;;;2.15;;
83552;SDS011;73510;50.866;5.420;2023-11-19T11:03:41;10.38;;;2.70;;
83552;SDS011;73510;50.866;5.420;2023-11-19T11:06:11;18.33;;;2.53;;
83552;SDS011;73510;50.866;5.420;2023-11-19T11:08:38;14.45;;;2.40;;
83552;SDS011;73510;50.866;5.420;2023-11-19T11:11:05;20.33;;;4.28;;
83552;SDS011;73510;50.866;5.420;2023-11-19T11:13:33;11.07;;;2.20;;
83552;SDS011;73510;50.866;5.420;2023-11-19T11:16:01;15.98;;;2.58;;
83552;SDS011;73510;50.866;5.420;2023-11-19T11:18:29;14.05;;;2.33;;
83552;SDS011;73510;50.866;5.420;2023-11-19T11:21:02;12.00;;;2.42;;
83552;SDS011;73510;50.866;5.420;2023-11-19T11:23:56;4.85;;;1.20;;
83552;SDS011;73510;50.866;5.420;2023-11-19T11:29:14;11.82;;;2.35;;
83552;SDS011;73510;50.866;5.420;2023-11-19T11:35:19;7.13;;;1.15;;
83552;SDS011;73510;50.866;5.420;2023-11-19T11:37:50;12.68;;;2.05;;
83552;SDS011;73510;50.866;5.420;2023-11-19T11:40:24;12.30;;;2.40;;
83552;SDS011;73510;50.866;5.420;2023-11-19T11:42:51;7.78;;;2.17;;
83552;SDS011;73510;50.866;5.420;2023-11-19T11:45:18;12.73;;;1.85;;
83552;SDS011;73510;50.866;5.420;2023-11-19T11:48:09;11.23;;;1.80;;
83552;SDS011;73510;50.866;5.420;2023-11-19T11:50:36;9.93;;;1.92;;
83552;SDS011;73510;50.866;5.420;2023-11-19T11:53:23;13.75;;;2.65;;
83552;SDS011;73510;50.866;5.420;2023-11-19T11:58:22;11.15;;;2.03;;
83552;SDS011;73510;50.866;5.420;2023-11-19T12:00:51;8.15;;;2.25;;
83552;SDS011;73510;50.866;5.420;2023-11-19T12:03:19;12.98;;;2.30;;
83552;SDS011;73510;50.866;5.420;2023-11-19T12:05:47;13.25;;;3.38;;
83552;SDS011;73510;50.866;5.420;2023-11-19T12:08:13;12.85;;;2.42;;
83552;SDS011;73510;50.866;5.420;2023-11-19T12:10:48;11.85;;;3.85;;
83552;SDS011;73510;50.866;5.420;2023-11-19T12:13:16;14.48;;;2.72;;
83552;SDS011;73510;50.866;5.420;2023-11-19T12:18:28;12.82;;;2.63;;
83552;SDS011;73510;50.866;5.420;2023-11-19T12:20:55;15.07;;;2.25;;
83552;SDS011;73510;50.866;5.420;2023-11-19T12:23:22;9.20;;;2.22;;
83552;SDS011;73510;50.866;5.420;2023-11-19T12:25:48;9.20;;;1.90;;
83552;SDS011;73510;50.866;5.420;2023-11-19T12:28:15;14.73;;;3.08;;
83552;SDS011;73510;50.866;5.420;2023-11-19T12:30:42;17.95;;;3.53;;
83552;SDS011;73510;50.866;5.420;2023-11-19T12:33:09;22.40;;;3.78;;
83552;SDS011;73510;50.866;5.420;2023-11-19T12:35:42;10.38;;;1.90;;
83552;SDS011;73510;50.866;5.420;2023-11-19T12:38:24;17.30;;;2.70;;
83552;SDS011;73510;50.866;5.420;2023-11-19T12:41:11;15.38;;;3.05;;
83552;SDS011;73510;50.866;5.420;2023-11-19T12:43:38;11.25;;;1.95;;
83552;SDS011;73510;50.866;5.420;2023-11-19T12:46:23;12.98;;;2.35;;
83552;SDS011;73510;50.866;5.420;2023-11-19T12:48:49;10.68;;;2.22;;
83552;SDS011;73510;50.866;5.420;2023-11-19T12:51:16;9.27;;;1.60;;
83552;SDS011;73510;50.866;5.420;2023-11-19T12:53:49;8.82;;;2.03;;
83552;SDS011;73510;50.866;5.420;2023-11-19T12:56:20;15.07;;;2.25;;
83552;SDS011;73510;50.866;5.420;2023-11-19T12:58:46;10.27;;;2.65;;
83552;SDS011;73510;50.866;5.420;2023-11-19T13:01:15;14.85;;;2.03;;
83552;SDS011;73510;50.866;5.420;2023-11-19T13:03:43;4.18;;;0.88;;
83552;SDS011;73510;50.866;5.420;2023-11-19T13:06:10;5.45;;;1.17;;
83552;SDS011;73510;50.866;5.420;2023-11-19T13:11:30;7.13;;;1.30;;
83552;SDS011;73510;50.866;5.420;2023-11-19T13:14:06;9.88;;;1.60;;
83552;SDS011;73510;50.866;5.420;2023-11-19T13:16:37;7.47;;;2.40;;
83552;SDS011;73510;50.866;5.420;2023-11-19T13:19:03;5.80;;;1.35;;
83552;SDS011;73510;50.866;5.420;2023-11-19T13:21:30;10.38;;;1.33;;
83552;SDS011;73510;50.866;5.420;2023-11-19T13:23:56;8.32;;;1.60;;
83552;SDS011;73510;50.866;5.420;2023-11-19T13:26:22;9.65;;;1.77;;
83552;SDS011;73510;50.866;5.420;2023-11-19T13:28:48;11.55;;;1.90;;
83552;SDS011;73510;50.866;5.420;2023-11-19T13:31:14;15.23;;;2.65;;
83552;SDS011;73510;50.866;5.420;2023-11-19T13:33:40;10.13;;;1.83;;
83552;SDS011;73510;50.866;5.420;2023-11-19T13:36:06;9.25;;;2.08;;
83552;SDS011;73510;50.866;5.420;2023-11-19T13:38:36;14.30;;;2.67;;
83552;SDS011;73510;50.866;5.420;2023-11-19T13:41:02;9.90;;;2.10;;
83552;SDS011;73510;50.866;5.420;2023-11-19T13:43:29;9.02;;;2.30;;
83552;SDS011;73510;50.866;5.420;2023-11-19T13:45:56;11.75;;;2.50;;
83552;SDS011;73510;50.866;5.420;2023-11-19T13:48:23;8.48;;;1.92;;
83552;SDS011;73510;50.866;5.420;2023-11-19T13:50:49;15.68;;;2.40;;
83552;SDS011;73510;50.866;5.420;2023-11-19T13:53:15;10.13;;;2.08;;
83552;SDS011;73510;50.866;5.420;2023-11-19T13:55:42;13.52;;;1.48;;
83552;SDS011;73510;50.866;5.420;2023-11-19T13:58:08;13.98;;;3.35;;
83552;SDS011;73510;50.866;5.420;2023-11-19T14:00:35;11.38;;;2.38;;
83552;SDS011;73510;50.866;5.420;2023-11-19T14:03:02;16.05;;;3.05;;
83552;SDS011;73510;50.866;5.420;2023-11-19T14:05:28;10.95;;;2.08;;
83552;SDS011;73510;50.866;5.420;2023-11-19T14:07:53;17.70;;;2.83;;
83552;SDS011;73510;50.866;5.420;2023-11-19T14:10:21;14.85;;;2.47;;
83552;SDS011;73510;50.866;5.420;2023-11-19T14:12:48;15.38;;;2.75;;
83552;SDS011;73510;50.866;5.420;2023-11-19T14:15:14;10.40;;;2.88;;
83552;SDS011;73510;50.866;5.420;2023-11-19T14:17:42;12.95;;;2.00;;
83552;SDS011;73510;50.866;5.420;2023-11-19T14:20:08;9.95;;;2.00;;
83552;SDS011;73510;50.866;5.420;2023-11-19T14:22:44;10.57;;;2.50;;
83552;SDS011;73510;50.866;5.420;2023-11-19T14:25:13;9.65;;;1.85;;
83552;SDS011;73510;50.866;5.420;2023-11-19T14:27:40;13.32;;;2.03;;
83552;SDS011;73510;50.866;5.420;2023-11-19T14:30:07;7.75;;;1.80;;
83552;SDS011;73510;50.866;5.420;2023-11-19T14:32:36;11.68;;;1.80;;
83552;SDS011;73510;50.866;5.420;2023-11-19T14:35:02;11.57;;;2.38;;
83552;SDS011;73510;50.866;5.420;2023-11-19T14:37:28;12.73;;;2.40;;
83552;SDS011;73510;50.866;5.420;2023-11-19T14:39:56;10.65;;;2.00;;
83552;SDS011;73510;50.866;5.420;2023-11-19T14:42:23;10.93;;;2.20;;
83552;SDS011;73510;50.866;5.420;2023-11-19T14:44:50;14.13;;;2.63;;
83552;SDS011;73510;50.866;5.420;2023-11-19T14:47:18;7.03;;;1.73;;
83552;SDS011;73510;50.866;5.420;2023-11-19T14:49:48;14.48;;;2.55;;
83552;SDS011;73510;50.866;5.420;2023-11-19T14:52:13;15.77;;;3.22;;
83552;SDS011;73510;50.866;5.420;2023-11-19T14:54:39;14.63;;;2.50;;